Time;durP1;ratioP1;P1;durP2;ratioP2;P2;SDS_P1;SDS_P2;PMS_P1;PMS_P2;Temp;Humidity;BMP_temperature;BMP_pressure;BME280_temperature;BME280_humidity;BME280_pressure;Samples;Min_cycle;Max_cycle;Signal;HPM_P1;HPM_P2
2021/08/09 00:00:00;;;;;;;5.35;2.58;;;;;;;20.37;62.77;97468.75;5089264;28;20036;-75
2021/08/09 00:02:52;;;;;;;5.80;2.80;;;;;;;20.36;63.10;97473.34;5090814;28;20555;-78
2021/08/09 00:05:27;;;;;;;5.28;2.63;;;;;;;20.35;62.78;97468.91;5080621;28;20578;-75
2021/08/09 00:08:08;;;;;;;2.75;2.47;;;;;;;20.30;62.74;97462.25;5071901;28;20032;-76
2021/08/09 00:11:01;;;;;;;6.82;3.10;;;;;;;20.09;63.46;97420.97;5086398;28;20020;-76
2021/08/09 00:13:26;;;;;;;5.75;2.33;;;;;;;20.24;63.63;97449.28;5090646;28;20031;-76
2021/08/09 00:15:57;;;;;;;6.93;2.58;;;;;;;20.24;63.66;97460.13;5090661;28;20031;-77
2021/08/09 00:18:26;;;;;;;2.97;2.50;;;;;;;20.22;64.65;97451.25;5090456;28;20031;-74
2021/08/09 00:20:52;;;;;;;4.97;3.05;;;;;;;20.23;64.02;97450.28;5090923;28;20032;-75
2021/08/09 00:23:19;;;;;;;5.72;3.10;;;;;;;20.23;64.23;97448.41;5090025;28;20111;-73
2021/08/09 00:25:45;;;;;;;3.40;2.63;;;;;;;20.19;63.93;97440.72;5090380;28;20410;-73
2021/08/09 00:28:10;;;;;;;4.00;2.47;;;;;;;20.09;64.16;97446.22;5088699;28;20024;-73
2021/08/09 00:30:36;;;;;;;3.90;2.90;;;;;;;20.08;64.43;97449.97;5073149;28;20032;-73
2021/08/09 00:33:01;;;;;;;4.40;2.63;;;;;;;19.99;65.12;97451.75;5090470;28;20038;-73
2021/08/09 00:35:28;;;;;;;33.53;15.15;;;;;;;20.04;65.23;97454.00;5085832;28;20465;-74
2021/08/09 00:37:53;;;;;;;104.35;54.92;;;;;;;20.04;65.93;97459.44;5070332;28;20403;-74
2021/08/09 00:40:19;;;;;;;13.38;4.20;;;;;;;20.09;65.67;97457.09;5072798;28;20125;-73
2021/08/09 00:42:45;;;;;;;8.90;3.83;;;;;;;20.03;66.97;97461.28;5073128;28;20039;-73
2021/08/09 00:45:11;;;;;;;8.57;3.50;;;;;;;20.03;67.50;97458.59;5089751;28;20040;-74
2021/08/09 00:47:36;;;;;;;7.85;3.58;;;;;;;19.99;67.63;97457.19;5091384;28;20102;-74
2021/08/09 00:50:03;;;;;;;9.52;3.63;;;;;;;20.02;67.88;97467.75;5089729;28;20043;-74
2021/08/09 00:52:29;;;;;;;6.95;3.80;;;;;;;20.00;68.02;97461.59;5089641;28;20107;-73
2021/08/09 00:54:54;;;;;;;8.80;4.07;;;;;;;19.93;68.12;97446.94;5089829;28;20106;-73
2021/08/09 00:57:20;;;;;;;6.95;3.78;;;;;;;19.99;68.65;97457.19;5089538;28;20032;-74
2021/08/09 00:59:46;;;;;;;9.05;4.07;;;;;;;19.92;68.41;97450.69;5089782;28;20035;-74
2021/08/09 01:02:12;;;;;;;7.78;3.40;;;;;;;19.81;68.54;97450.88;5089682;28;20024;-74
2021/08/09 01:04:37;;;;;;;7.07;3.10;;;;;;;19.73;68.92;97444.53;5089509;28;20487;-74
2021/08/09 01:07:04;;;;;;;4.78;3.40;;;;;;;19.62;69.57;97453.78;5090716;28;20020;-73
2021/08/09 01:09:38;;;;;;;3.85;3.08;;;;;;;19.48;70.30;97457.00;5089322;28;20478;-73
2021/08/09 01:12:29;;;;;;;5.80;3.30;;;;;;;19.37;70.28;97449.91;5089661;28;20095;-73
2021/08/09 01:15:04;;;;;;;4.25;3.03;;;;;;;19.40;70.76;97473.19;5067045;28;20492;-73
2021/08/09 01:17:34;;;;;;;6.03;2.90;;;;;;;19.37;71.00;97465.31;5089887;28;20383;-73
2021/08/09 01:20:05;;;;;;;4.10;3.10;;;;;;;19.25;71.77;97466.53;5089493;28;20031;-73
2021/08/09 01:23:01;;;;;;;4.28;3.00;;;;;;;19.26;72.05;97468.22;5090417;28;20111;-73
2021/08/09 01:25:30;;;;;;;7.93;2.90;;;;;;;19.14;72.61;97469.41;5089312;28;20032;-73
2021/08/09 01:27:56;;;;;;;3.63;2.90;;;;;;;19.11;72.99;97465.16;5089507;28;20550;-73
2021/08/09 01:30:23;;;;;;;4.85;3.17;;;;;;;19.04;73.10;97441.50;5089584;28;20047;-73
2021/08/09 01:32:49;;;;;;;17.90;3.10;;;;;;;19.05;73.52;97452.19;5089410;28;20020;-76
2021/08/09 01:35:16;;;;;;;4.22;3.03;;;;;;;19.06;73.99;97455.75;5090591;28;20078;-73
2021/08/09 01:37:45;;;;;;;5.72;3.25;;;;;;;19.06;73.66;97456.63;5089034;28;20040;-73
2021/08/09 01:40:12;;;;;;;5.45;3.00;;;;;;;19.06;73.39;97463.91;5072234;28;20514;-73
2021/08/09 01:42:40;;;;;;;5.95;2.92;;;;;;;19.08;73.59;97465.44;5089867;28;20047;-73
2021/08/09 01:45:07;;;;;;;6.53;3.17;;;;;;;19.04;73.53;97460.50;5093005;28;20034;-73
2021/08/09 01:47:34;;;;;;;4.93;2.90;;;;;;;19.02;74.55;97467.91;5092662;28;20434;-73
2021/08/09 01:50:02;;;;;;;7.18;2.97;;;;;;;18.99;75.11;97463.63;5093065;28;20449;-73
2021/08/09 01:52:27;;;;;;;5.32;3.22;;;;;;;19.02;75.01;97457.06;5092776;28;20023;-73
2021/08/09 01:54:53;;;;;;;4.78;3.55;;;;;;;18.94;75.72;97453.25;5092564;28;20028;-73
2021/08/09 01:57:19;;;;;;;4.53;3.38;;;;;;;18.88;76.17;97456.56;5093019;28;20020;-74
2021/08/09 01:59:44;;;;;;;4.43;3.00;;;;;;;18.77;76.51;97445.88;5092479;28;20027;-73
2021/08/09 02:02:10;;;;;;;7.55;3.15;;;;;;;18.74;76.81;97462.44;5092880;28;20032;-73
2021/08/09 02:04:35;;;;;;;5.00;3.13;;;;;;;18.72;77.19;97466.31;5092581;28;20020;-73
2021/08/09 02:07:01;;;;;;;3.42;2.90;;;;;;;18.63;77.14;97459.94;5093553;28;20023;-73
2021/08/09 02:09:26;;;;;;;4.35;3.20;;;;;;;18.61;76.40;97467.31;5092290;28;20024;-73
2021/08/09 02:12:04;;;;;;;4.28;2.85;;;;;;;18.48;75.23;97455.94;5092649;28;20051;-73
2021/08/09 02:14:33;;;;;;;3.92;3.17;;;;;;;18.43;75.10;97458.22;5075665;28;20028;-73
2021/08/09 02:17:05;;;;;;;4.78;3.33;;;;;;;18.48;75.32;97469.47;5092199;28;20020;-73
2021/08/09 02:19:39;;;;;;;5.75;3.55;;;;;;;18.47;75.67;97470.47;5092517;28;20020;-73
2021/08/09 02:22:21;;;;;;;3.90;3.17;;;;;;;18.40;75.42;97463.91;5104153;28;20038;-75
2021/08/09 02:24:58;;;;;;;8.30;3.10;;;;;;;18.40;75.55;97453.09;5074450;28;20555;-74
2021/08/09 02:27:26;;;;;;;7.65;2.95;;;;;;;18.50;76.17;97469.34;5092152;28;20034;-73
2021/08/09 02:29:53;;;;;;;14.80;3.75;;;;;;;18.49;76.38;97475.75;5092210;28;20534;-73
2021/08/09 02:32:21;;;;;;;6.88;3.38;;;;;;;18.49;76.26;97473.91;5092041;28;20038;-73
2021/08/09 02:34:48;;;;;;;5.88;3.08;;;;;;;18.53;76.25;97491.59;5090666;28;20031;-73
2021/08/09 02:37:14;;;;;;;6.32;3.50;;;;;;;18.49;75.93;97498.28;5091851;28;20050;-73
2021/08/09 02:39:40;;;;;;;5.43;3.33;;;;;;;18.50;76.27;97496.44;5091815;28;20415;-73
2021/08/09 02:42:06;;;;;;;10.18;3.35;;;;;;;18.43;76.26;97496.13;5091882;28;20024;-73
2021/08/09 02:44:32;;;;;;;5.15;3.40;;;;;;;18.33;76.18;97489.91;5093394;28;20055;-74
2021/08/09 02:46:59;;;;;;;4.95;3.15;;;;;;;18.27;76.04;97479.66;5091988;28;20027;-73
2021/08/09 02:49:29;;;;;;;14.93;3.92;;;;;;;18.26;76.60;97500.44;5092457;28;20024;-74
2021/08/09 02:51:55;;;;;;;6.53;3.50;;;;;;;18.12;76.88;97475.66;5075344;28;20164;-75
2021/08/09 02:54:20;;;;;;;6.40;3.53;;;;;;;18.22;77.26;97498.16;5091465;28;20031;-75
2021/08/09 02:56:46;;;;;;;6.32;3.22;;;;;;;18.21;77.08;97482.94;5074008;28;20251;-75
2021/08/09 02:59:13;;;;;;;8.90;3.50;;;;;;;18.26;76.62;97488.75;5091654;28;20027;-75
2021/08/09 03:01:40;;;;;;;10.07;3.40;;;;;;;18.20;77.18;97490.19;5091709;28;20118;-75
2021/08/09 03:04:06;;;;;;;6.97;3.65;;;;;;;18.13;76.73;97480.06;5083423;28;20499;-75
2021/08/09 03:06:31;;;;;;;6.47;3.42;;;;;;;18.15;77.04;97478.09;5091767;28;20031;-73
2021/08/09 03:08:57;;;;;;;10.40;3.50;;;;;;;18.13;77.31;97475.50;5091666;28;20168;-74
2021/08/09 03:11:23;;;;;;;5.25;3.70;;;;;;;18.19;77.51;97488.47;5074852;28;20032;-74
2021/08/09 03:13:50;;;;;;;5.50;3.50;;;;;;;18.25;77.53;97495.16;5091372;28;20410;-74
2021/08/09 03:16:16;;;;;;;9.52;3.55;;;;;;;18.21;77.53;97491.06;5091075;28;20149;-74
2021/08/09 03:18:42;;;;;;;4.68;3.70;;;;;;;18.26;77.38;97505.00;5091157;28;20073;-74
2021/08/09 03:21:08;;;;;;;6.95;3.40;;;;;;;18.26;77.39;97510.41;5091236;28;20028;-73
2021/08/09 03:23:37;;;;;;;7.90;3.92;;;;;;;18.29;77.04;97504.72;5091787;28;20016;-73
2021/08/09 03:26:03;;;;;;;8.10;3.78;;;;;;;18.18;77.46;97494.06;5091024;28;20495;-74
2021/08/09 03:28:29;;;;;;;18.02;3.83;;;;;;;18.23;77.24;97506.16;5091177;28;20031;-74
2021/08/09 03:30:54;;;;;;;13.07;6.32;;;;;;;18.24;77.48;97512.44;5092628;28;20503;-74
2021/08/09 03:33:20;;;;;;;14.27;3.60;;;;;;;18.25;77.28;97506.84;5091007;28;20046;-73
2021/08/09 03:35:45;;;;;;;7.40;3.63;;;;;;;18.37;77.18;97513.81;5090557;28;20458;-74
2021/08/09 03:38:11;;;;;;;34.10;13.23;;;;;;;18.39;77.24;97502.88;5090597;28;20116;-74
2021/08/09 03:40:37;;;;;;;17.85;4.38;;;;;;;18.46;76.86;97516.69;5090862;28;20040;-74
2021/08/09 03:43:04;;;;;;;8.00;4.38;;;;;;;18.49;77.13;97527.25;5090711;28;20035;-74
2021/08/09 03:45:29;;;;;;;8.95;4.20;;;;;;;18.46;77.09;97517.53;5091051;28;20032;-74
2021/08/09 03:47:55;;;;;;;16.70;4.38;;;;;;;18.40;77.29;97509.97;5092432;28;20038;-74
2021/08/09 03:50:20;;;;;;;11.57;3.88;;;;;;;18.44;77.04;97514.09;5091557;28;20035;-74
2021/08/09 03:52:54;;;;;;;7.80;4.15;;;;;;;18.45;76.95;97513.13;5090149;28;20032;-74
2021/08/09 03:55:20;;;;;;;11.18;4.72;;;;;;;18.55;76.66;97524.81;5089822;28;20418;-74
2021/08/09 03:57:46;;;;;;;9.00;4.25;;;;;;;18.49;76.59;97530.81;5090208;28;20024;-74
2021/08/09 04:00:12;;;;;;;7.78;3.85;;;;;;;18.62;76.30;97534.06;5090272;28;20081;-74
2021/08/09 04:02:38;;;;;;;12.27;5.20;;;;;;;18.63;76.55;97530.38;5090747;28;20479;-74
2021/08/09 04:05:07;;;;;;;14.77;5.93;;;;;;;18.60;76.31;97525.25;5090483;28;20093;-74
2021/08/09 04:07:33;;;;;;;14.18;5.20;;;;;;;18.73;75.98;97533.06;5091001;28;20032;-74
2021/08/09 04:09:58;;;;;;;12.05;4.90;;;;;;;18.70;75.78;97522.53;5090613;28;20035;-74
2021/08/09 04:12:24;;;;;;;21.15;5.28;;;;;;;18.75;76.02;97536.47;5090701;28;20111;-73
2021/08/09 04:14:49;;;;;;;9.77;4.95;;;;;;;18.75;76.11;97533.78;5092034;28;20036;-74
2021/08/09 04:17:15;;;;;;;10.23;4.72;;;;;;;18.69;76.42;97529.78;5091656;28;20068;-74
2021/08/09 04:19:41;;;;;;;13.77;5.15;;;;;;;18.78;76.17;97528.06;5090515;28;20541;-74
2021/08/09 04:22:06;;;;;;;30.85;5.53;;;;;;;18.93;75.04;97518.47;5090507;28;20043;-75
2021/08/09 04:24:32;;;;;;;17.52;5.18;;;;;;;20.14;70.35;97535.41;5090289;28;20495;-74
2021/08/09 04:26:58;;;;;;;13.00;4.70;;;;;;;20.32;68.28;97533.59;5090355;28;20036;-74
2021/08/09 04:29:23;;;;;;;13.35;5.00;;;;;;;20.26;68.86;97545.06;5090280;28;20031;-74
2021/08/09 04:31:49;;;;;;;10.90;4.72;;;;;;;20.08;69.26;97531.47;5085472;28;20677;-75
2021/08/09 04:34:14;;;;;;;17.80;4.90;;;;;;;19.99;69.91;97538.66;5067872;28;20035;-76
2021/08/09 04:36:40;;;;;;;15.05;4.88;;;;;;;19.77;70.80;97530.97;5088700;28;20028;-75
2021/08/09 04:39:06;;;;;;;8.35;4.65;;;;;;;19.81;70.50;97539.66;5087536;28;20110;-75
2021/08/09 04:41:31;;;;;;;16.98;4.55;;;;;;;19.78;71.05;97548.94;5081710;28;20028;-75
2021/08/09 04:43:57;;;;;;;11.85;4.63;;;;;;;19.77;71.63;97547.25;5088572;28;20111;-75
2021/08/09 04:46:26;;;;;;;10.73;4.78;;;;;;;19.91;70.98;97544.00;5089278;28;20032;-75
2021/08/09 04:48:51;;;;;;;10.15;4.15;;;;;;;19.83;70.70;97529.50;5089043;28;20588;-80
2021/08/09 04:51:17;;;;;;;13.25;4.13;;;;;;;20.04;70.49;97554.50;5091102;28;20023;-79
2021/08/09 04:53:43;;;;;;;13.55;4.65;;;;;;;20.05;70.27;97536.34;5089660;28;20081;-79
2021/08/09 04:56:09;;;;;;;17.13;5.35;;;;;;;20.28;69.72;97545.75;5087642;28;20024;-78
2021/08/09 04:58:34;;;;;;;7.82;4.25;;;;;;;20.50;68.54;97553.44;5070173;28;20407;-75
2021/08/09 05:01:00;;;;;;;16.15;4.35;;;;;;;20.62;68.45;97560.34;5088790;28;20028;-74
2021/08/09 05:03:25;;;;;;;14.50;4.97;;;;;;;20.73;67.78;97568.28;5088019;28;20024;-73
2021/08/09 05:05:51;;;;;;;8.13;4.38;;;;;;;20.89;67.19;97565.66;5087850;28;20467;-74
2021/08/09 05:08:17;;;;;;;12.73;8.25;;;;;;;21.02;66.55;97566.09;5087242;28;20036;-73
2021/08/09 05:10:42;;;;;;;14.52;4.78;;;;;;;21.21;65.99;97564.22;5087347;28;20036;-74
2021/08/09 05:13:08;;;;;;;15.85;5.00;;;;;;;21.34;65.63;97561.91;5087920;28;20155;-74
2021/08/09 05:15:39;;;;;;;16.35;5.75;;;;;;;21.58;65.14;97571.06;5086697;28;20468;-74
2021/08/09 05:18:04;;;;;;;10.95;4.93;;;;;;;21.75;64.46;97569.25;5091561;28;20110;-75
2021/08/09 05:20:30;;;;;;;19.92;5.35;;;;;;;21.96;63.69;97577.91;5095232;28;20111;-75
2021/08/09 05:22:56;;;;;;;17.75;5.63;;;;;;;22.14;62.97;97581.38;5084395;28;20033;-74
2021/08/09 05:25:22;;;;;;;16.42;5.55;;;;;;;22.17;62.78;97573.88;5081850;28;20020;-74
2021/08/09 05:27:48;;;;;;;16.92;8.23;;;;;;;22.56;61.45;97585.84;5092685;28;20495;-75
2021/08/09 05:30:13;;;;;;;42.15;13.32;;;;;;;22.82;60.55;97589.34;5093666;28;20031;-75
2021/08/09 05:32:39;;;;;;;23.92;8.68;;;;;;;23.75;57.43;97585.09;5094839;28;20430;-74
2021/08/09 05:35:06;;;;;;;15.23;5.80;;;;;;;26.02;50.37;97606.16;5093502;28;20020;-75
2021/08/09 05:37:34;;;;;;;18.88;6.32;;;;;;;27.63;46.01;97597.34;5093493;28;20071;-74
2021/08/09 05:40:00;;;;;;;12.13;6.18;;;;;;;28.63;43.42;97601.28;5093413;28;20031;-75
2021/08/09 05:42:25;;;;;;;19.92;6.47;;;;;;;30.13;40.14;97596.91;5094710;28;20107;-75
2021/08/09 05:44:52;;;;;;;31.65;6.50;;;;;;;31.93;36.99;97591.78;5094501;28;20085;-76
2021/08/09 05:47:17;;;;;;;18.23;5.80;;;;;;;32.43;35.41;97604.41;5093474;28;20034;-75
2021/08/09 05:49:43;;;;;;;19.70;5.28;;;;;;;32.11;35.61;97566.91;5093405;28;20103;-75
2021/08/09 05:52:18;;;;;;;23.00;7.57;;;;;;;32.67;34.97;97606.25;5076011;28;20392;-75
2021/08/09 05:54:43;;;;;;;40.53;6.78;;;;;;;32.93;34.42;97599.53;5076359;28;20403;-75
2021/08/09 05:57:09;;;;;;;19.50;7.45;;;;;;;33.65;33.19;97614.25;5092912;28;20027;-76
2021/08/09 05:59:34;;;;;;;11.57;5.40;;;;;;;33.87;32.10;97611.72;5093240;28;20056;-79
2021/08/09 06:02:00;;;;;;;22.35;4.93;;;;;;;34.43;31.67;97611.09;5094939;28;20483;-77
2021/08/09 06:04:25;;;;;;;21.65;6.65;;;;;;;35.46;30.21;97611.84;5093906;28;20031;-77
2021/08/09 06:06:51;;;;;;;26.10;6.18;;;;;;;35.52;30.00;97612.75;5093592;28;20024;-77
2021/08/09 06:09:16;;;;;;;274.70;16.27;;;;;;;35.87;29.18;97600.28;5093438;28;20020;-76
2021/08/09 06:11:42;;;;;;;47.63;13.57;;;;;;;36.09;29.02;97594.81;5076073;28;20031;-75
2021/08/09 06:14:08;;;;;;;9.45;4.80;;;;;;;37.13;27.60;97603.19;5092768;28;20027;-75
2021/08/09 06:16:33;;;;;;;12.68;5.22;;;;;;;37.61;26.64;97603.13;5092846;28;20510;-75
2021/08/09 06:18:59;;;;;;;12.27;4.82;;;;;;;37.45;26.17;97592.94;5092301;28;20035;-76
2021/08/09 06:21:25;;;;;;;8.15;4.70;;;;;;;38.21;25.66;97596.38;5093827;28;20039;-74
2021/08/09 06:23:50;;;;;;;36.25;8.60;;;;;;;37.92;25.77;97596.72;5092529;28;20032;-74
2021/08/09 06:26:16;;;;;;;28.88;5.20;;;;;;;36.78;26.87;97592.44;5092654;28;20525;-74
2021/08/09 06:28:41;;;;;;;7.55;3.88;;;;;;;37.02;26.52;97591.06;5075362;28;20028;-75
2021/08/09 06:31:07;;;;;;;14.43;4.40;;;;;;;38.02;25.52;97592.31;5091886;28;20410;-76
2021/08/09 06:33:32;;;;;;;13.55;4.47;;;;;;;38.11;25.38;97576.72;5092363;28;20034;-76
2021/08/09 06:35:58;;;;;;;14.30;4.50;;;;;;;37.62;26.19;97582.50;5093353;28;20032;-75
2021/08/09 06:38:23;;;;;;;18.55;4.43;;;;;;;38.14;25.42;97576.19;5092407;28;20044;-75
2021/08/09 06:40:49;;;;;;;196.48;11.32;;;;;;;37.69;25.88;97582.22;5093553;28;20032;-75
2021/08/09 06:43:14;;;;;;;45.15;5.20;;;;;;;38.26;25.50;97585.19;5092094;28;20028;-75
2021/08/09 06:45:41;;;;;;;16.70;4.10;;;;;;;39.06;23.66;97567.13;5092239;28;20144;-73
2021/08/09 06:48:08;;;;;;;12.73;4.30;;;;;;;39.64;23.26;97580.66;5092064;28;20028;-73
2021/08/09 06:50:33;;;;;;;230.20;11.25;;;;;;;38.95;23.91;97571.84;5075148;28;20054;-75
2021/08/09 06:52:59;;;;;;;28.52;4.90;;;;;;;40.12;22.65;97578.47;5091974;28;20027;-75
2021/08/09 06:55:24;;;;;;;22.63;4.22;;;;;;;40.64;21.89;97572.44;5092103;28;20072;-75
2021/08/09 06:57:50;;;;;;;14.75;6.00;;;;;;;41.31;21.14;97578.28;5091970;28;20031;-75
2021/08/09 07:00:15;;;;;;;18.00;3.55;;;;;;;40.22;22.54;97570.00;5093004;28;20501;-75
2021/08/09 07:02:41;;;;;;;9.02;3.30;;;;;;;39.66;23.12;97572.84;5092058;28;20407;-75
2021/08/09 07:05:07;;;;;;;57.25;4.88;;;;;;;41.15;22.00;97576.69;5091572;28;20039;-74
2021/08/09 07:07:33;;;;;;;9.38;3.45;;;;;;;40.46;22.41;97565.44;5091799;28;20538;-75
2021/08/09 07:09:59;;;;;;;6.28;3.05;;;;;;;40.80;21.54;97574.88;5091530;28;20027;-74
2021/08/09 07:12:24;;;;;;;12.65;3.85;;;;;;;41.57;21.38;97579.78;5092966;28;20024;-75
2021/08/09 07:14:50;;;;;;;15.85;3.13;;;;;;;41.52;20.37;97573.38;5091831;28;20020;-75
2021/08/09 07:17:15;;;;;;;8.77;2.55;;;;;;;39.91;21.70;97574.78;5091560;28;20499;-75
2021/08/09 07:19:41;;;;;;;9.27;4.10;;;;;;;40.06;21.68;97580.38;5074676;28;20024;-75
2021/08/09 07:22:06;;;;;;;17.88;2.95;;;;;;;40.81;20.42;97582.19;5092613;28;20060;-75
2021/08/09 07:24:32;;;;;;;14.30;2.75;;;;;;;41.43;19.88;97577.94;5092614;28;20483;-73
2021/08/09 07:26:58;;;;;;;13.27;3.08;;;;;;;40.99;19.64;97566.69;5092608;28;20027;-73
2021/08/09 07:29:23;;;;;;;20.13;2.97;;;;;;;41.61;19.37;97558.41;5091201;28;20026;-74
2021/08/09 07:31:49;;;;;;;29.02;3.40;;;;;;;42.20;18.88;97560.16;5091324;28;20028;-73
2021/08/09 07:34:15;;;;;;;9.25;2.45;;;;;;;41.98;18.27;97563.44;5092313;28;20035;-73
2021/08/09 07:36:40;;;;;;;26.17;3.55;;;;;;;41.42;19.06;97563.06;5092557;28;20081;-73
2021/08/09 07:39:06;;;;;;;6.97;3.03;;;;;;;40.35;20.06;97564.66;5090774;28;20514;-73
2021/08/09 07:41:32;;;;;;;6.55;2.67;;;;;;;41.05;20.05;97574.78;5092275;28;20019;-73
2021/08/09 07:43:57;;;;;;;6.15;2.92;;;;;;;42.62;18.70;97570.69;5092449;28;20051;-73
2021/08/09 07:46:24;;;;;;;15.23;3.30;;;;;;;42.34;18.34;97571.53;5090863;28;20160;-75
2021/08/09 07:48:50;;;;;;;17.10;3.53;;;;;;;42.62;18.13;97562.22;5092168;28;20024;-73
2021/08/09 07:51:16;;;;;;;9.75;3.40;;;;;;;43.05;17.78;97561.13;5090787;28;20040;-74
2021/08/09 07:53:41;;;;;;;13.43;3.70;;;;;;;43.83;17.42;97568.97;5091220;28;20120;-73
2021/08/09 07:56:07;;;;;;;7.57;3.47;;;;;;;45.32;16.42;97575.09;5090799;28;20040;-74
2021/08/09 07:58:32;;;;;;;14.55;3.50;;;;;;;45.93;15.67;97557.50;5090757;28;20108;-74
2021/08/09 08:00:58;;;;;;;29.98;3.97;;;;;;;46.88;14.95;97568.19;5090804;28;20558;-74
2021/08/09 08:03:24;;;;;;;22.02;2.70;;;;;;;46.14;14.92;97556.66;5090657;28;20024;-74
2021/08/09 08:05:49;;;;;;;4.07;2.80;;;;;;;45.64;15.47;97566.38;5090901;28;20110;-73
2021/08/09 08:08:15;;;;;;;9.95;3.78;;;;;;;46.28;15.01;97580.03;5090571;28;20028;-74
2021/08/09 08:10:41;;;;;;;18.13;2.78;;;;;;;46.66;14.79;97563.41;5090791;28;20501;-73
2021/08/09 08:13:06;;;;;;;34.33;3.80;;;;;;;46.49;15.22;97573.81;5091773;28;20407;-75
2021/08/09 08:15:32;;;;;;;16.23;3.00;;;;;;;46.38;15.53;97576.09;5073609;28;20028;-74
2021/08/09 08:17:57;;;;;;;11.80;3.78;;;;;;;46.83;15.74;97576.81;5090595;28;20079;-74
2021/08/09 08:20:23;;;;;;;28.75;3.80;;;;;;;47.02;15.09;97577.38;5090334;28;20032;-74
2021/08/09 08:22:49;;;;;;;20.13;3.60;;;;;;;47.70;14.29;97573.00;5091597;28;20031;-74
2021/08/09 08:25:14;;;;;;;35.65;3.78;;;;;;;47.62;14.58;97569.00;5090320;28;20035;-74
2021/08/09 08:27:40;;;;;;;4.60;2.70;;;;;;;47.64;14.59;97565.81;5091583;28;20106;-73
2021/08/09 08:30:06;;;;;;;19.50;4.03;;;;;;;47.84;14.04;97562.31;5090365;28;20024;-73
2021/08/09 08:32:32;;;;;;;20.58;3.75;;;;;;;48.08;14.36;97565.47;5073208;28;20061;-78
2021/08/09 08:34:59;;;;;;;6.20;3.08;;;;;;;47.22;14.59;97559.78;5090264;28;20020;-78
2021/08/09 08:37:25;;;;;;;12.23;7.60;;;;;;;47.57;14.91;97557.81;5091108;28;20177;-77
2021/08/09 08:39:51;;;;;;;4.70;3.60;;;;;;;46.67;15.11;97567.91;5091329;28;20437;-78
2021/08/09 08:42:19;;;;;;;134.82;8.55;;;;;;;46.56;14.93;97568.53;5090201;28;20020;-78
2021/08/09 08:44:45;;;;;;;10.45;3.70;;;;;;;47.49;14.41;97566.28;5091506;28;20028;-78
2021/08/09 08:47:16;;;;;;;6.07;3.03;;;;;;;47.04;14.72;97555.19;5073059;28;20020;-78
2021/08/09 08:49:43;;;;;;;134.15;10.38;;;;;;;46.13;15.06;97552.13;5090147;28;20020;-78
2021/08/09 08:52:09;;;;;;;129.45;8.00;;;;;;;46.77;14.95;97561.94;5089526;28;20027;-78
2021/08/09 08:54:35;;;;;;;15.23;3.95;;;;;;;46.71;14.56;97563.25;5089902;28;20035;-78
2021/08/09 08:57:03;;;;;;;459.35;24.63;;;;;;;46.49;14.90;97554.84;5090108;28;20059;-77
2021/08/09 08:59:30;;;;;;;30.83;4.93;;;;;;;45.39;15.05;97548.03;5090844;28;20036;-78
2021/08/09 09:01:55;;;;;;;25.85;4.55;;;;;;;43.79;16.58;97552.97;5089926;28;20059;-78
2021/08/09 09:04:25;;;;;;;3.83;3.15;;;;;;;43.73;16.80;97553.03;5089954;28;20055;-77
2021/08/09 09:07:07;;;;;;;7.10;3.70;;;;;;;45.50;15.66;97560.78;5090217;28;20028;-78
2021/08/09 09:09:38;;;;;;;10.77;4.15;;;;;;;46.07;15.00;97567.59;5089888;28;20041;-78
2021/08/09 09:12:15;;;;;;;10.43;3.70;;;;;;;47.60;14.69;97564.81;5090085;28;20076;-78
2021/08/09 09:14:41;;;;;;;16.25;3.67;;;;;;;48.59;13.46;97567.34;5091103;28;20449;-78
2021/08/09 09:17:06;;;;;;;7.85;3.38;;;;;;;48.30;13.55;97561.59;5089718;28;20020;-78
2021/08/09 09:19:41;;;;;;;4.53;3.30;;;;;;;47.35;14.41;97558.78;5090540;28;20119;-78
2021/08/09 09:22:21;;;;;;;10.60;4.00;;;;;;;46.74;14.96;97558.94;5089762;28;20024;-78
2021/08/09 09:24:54;;;;;;;8.85;3.72;;;;;;;47.61;14.46;97553.16;5091037;28;20056;-78
2021/08/09 09:27:26;;;;;;;5.82;3.20;;;;;;;46.13;15.12;97552.13;5089859;28;20028;-77
2021/08/09 09:29:51;;;;;;;8.55;3.50;;;;;;;47.13;14.92;97553.22;5089750;28;20399;-78
2021/08/09 09:32:19;;;;;;;14.90;3.72;;;;;;;48.07;14.26;97558.13;5089872;28;20039;-78
2021/08/09 09:34:50;;;;;;;6.95;3.30;;;;;;;48.01;14.39;97545.28;5064660;28;20020;-77
2021/08/09 09:37:27;;;;;;;8.85;3.33;;;;;;;46.45;15.05;97541.66;5089307;28;20051;-78
2021/08/09 09:39:53;;;;;;;6.65;3.08;;;;;;;47.24;14.52;97548.09;5089905;28;20030;-78
2021/08/09 09:42:19;;;;;;;6.20;2.70;;;;;;;47.02;14.74;97540.53;5089683;28;20030;-78
2021/08/09 09:44:44;;;;;;;16.48;4.00;;;;;;;47.00;15.31;97536.38;5090690;28;20096;-77
2021/08/09 09:47:32;;;;;;;8.25;3.63;;;;;;;46.66;15.54;97543.59;5090807;28;20089;-78
2021/08/09 09:49:59;;;;;;;12.30;3.95;;;;;;;46.04;16.03;97554.06;5090717;28;20547;-77
2021/08/09 09:52:44;;;;;;;6.95;3.47;;;;;;;46.31;15.80;97548.22;5089401;28;20063;-77
2021/08/09 09:55:11;;;;;;;8.35;3.47;;;;;;;46.93;15.80;97547.34;5089720;28;20077;-78
2021/08/09 09:57:38;;;;;;;11.52;3.72;;;;;;;48.04;14.67;97550.28;5106146;28;20483;-78
2021/08/09 10:00:11;;;;;;;10.80;4.15;;;;;;;48.57;14.23;97544.13;5087888;28;20020;-84
2021/08/09 10:02:38;;;;;;;28.35;4.70;;;;;;;49.43;13.54;97540.81;5085027;28;20488;-85
2021/08/09 10:05:04;;;;;;;10.05;4.35;;;;;;;48.84;14.10;97539.97;5090859;28;20016;-84
2021/08/09 10:07:30;;;;;;;13.52;4.75;;;;;;;49.60;13.56;97539.81;5075598;28;20111;-85
2021/08/09 10:09:59;;;;;;;7.20;3.95;;;;;;;49.41;13.42;97528.91;5093053;28;20089;-85
2021/08/09 10:12:27;;;;;;;5.95;3.85;;;;;;;49.62;13.38;97537.47;5093531;28;20023;-84
2021/08/09 10:14:54;;;;;;;5.22;3.42;;;;;;;49.73;13.12;97522.47;5075573;28;20036;-84
2021/08/09 10:17:21;;;;;;;13.38;5.93;;;;;;;50.01;13.09;97545.50;5093087;28;20034;-85
2021/08/09 10:19:48;;;;;;;6.90;3.80;;;;;;;49.29;13.08;97529.69;5076088;28;20044;-85
2021/08/09 10:22:17;;;;;;;143.15;9.63;;;;;;;50.28;12.57;97533.47;5093328;28;20055;-85
2021/08/09 10:24:47;;;;;;;12.90;3.75;;;;;;;49.67;12.97;97508.81;5093275;28;20503;-85
2021/08/09 10:27:12;;;;;;;31.63;4.82;;;;;;;48.13;13.58;97525.53;5076271;28;20024;-84
2021/08/09 10:29:59;;;;;;;14.45;5.82;;;;;;;49.23;12.90;97533.91;5094319;28;20068;-88
2021/08/09 10:32:28;;;;;;;8.32;4.97;;;;;;;50.30;12.53;97535.97;5094230;28;20028;-84
2021/08/09 10:34:55;;;;;;;19.20;4.95;;;;;;;50.59;12.26;97498.75;5078048;28;20024;-85
2021/08/09 10:37:22;;;;;;;47.05;6.78;;;;;;;50.78;12.66;97532.38;5095892;28;20127;-87
2021/08/09 10:39:55;;;;;;;28.23;4.85;;;;;;;49.60;13.12;97534.13;5078850;28;20427;-85
2021/08/09 10:42:36;;;;;;;5.80;5.20;;;;;;;50.41;12.21;97526.63;5095270;28;20059;-86
2021/08/09 10:45:05;;;;;;;10.63;4.95;;;;;;;51.47;11.98;97533.03;5093542;28;20114;-86
2021/08/09 10:47:46;;;;;;;10.35;4.47;;;;;;;50.24;12.51;97538.19;5098930;28;20024;-87
2021/08/09 10:50:45;;;;;;;5.88;4.15;;;;;;;50.21;12.54;97530.34;5097258;28;20032;-86
2021/08/09 10:53:29;;;;;;;64.80;7.17;;;;;;;51.24;12.38;97531.03;5057738;28;20059;-88
2021/08/09 10:55:59;;;;;;;26.33;6.72;;;;;;;50.19;12.86;97521.34;5075502;28;20715;-85
2021/08/09 10:58:49;;;;;;;18.63;5.30;;;;;;;50.67;12.48;97514.09;5075142;28;20557;-90
2021/08/09 11:01:20;;;;;;;34.88;5.55;;;;;;;50.86;12.36;97526.53;5075411;28;20574;-86
2021/08/09 11:04:01;;;;;;;16.55;4.93;;;;;;;50.85;11.80;97510.66;5065510;28;20081;-87
2021/08/09 11:06:41;;;;;;;14.50;5.03;;;;;;;51.15;11.90;97516.09;5093466;28;20487;-90
2021/08/09 11:09:31;;;;;;;27.90;6.32;;;;;;;51.40;11.57;97517.72;5077651;28;20089;-88
2021/08/09 11:12:17;;;;;;;40.58;5.35;;;;;;;52.05;11.60;97524.16;5092434;28;20028;-81
2021/08/09 11:15:06;;;;;;;13.15;4.82;;;;;;;51.75;11.53;97527.38;5096754;28;20450;-86
2021/08/09 11:17:34;;;;;;;8.50;5.03;;;;;;;51.40;11.95;97526.28;5094694;28;20032;-88
2021/08/09 11:20:25;;;;;;;12.63;5.30;;;;;;;50.84;12.56;97516.69;5093265;28;20427;-87
2021/08/09 11:23:10;;;;;;;13.23;4.40;;;;;;;50.61;12.27;97515.50;5093611;28;20084;-87
2021/08/09 11:25:39;;;;;;;14.55;5.40;;;;;;;51.11;11.92;97518.81;5092174;28;20053;-86
2021/08/09 11:28:07;;;;;;;8.00;4.90;;;;;;;51.10;11.96;97516.34;5092604;28;20031;-87
2021/08/09 11:30:38;;;;;;;15.32;5.32;;;;;;;51.32;11.96;97510.97;5075975;28;20020;-88
2021/08/09 11:33:04;;;;;;;16.30;5.18;;;;;;;51.38;11.88;97508.72;5092693;28;20024;-87